createdAt,value
2023-04-02T00:00:19.292Z,6.91
2023-04-02T00:05:33.322Z,6.93
2023-04-02T00:10:36.981Z,6.93
2023-04-02T00:15:42.267Z,6.87
2023-04-02T00:20:51.613Z,6.83
2023-04-02T00:25:54.214Z,6.56
2023-04-02T00:30:59.942Z,6.32
2023-04-02T00:36:08.154Z,6.17
2023-04-02T00:41:16.863Z,6.05
2023-04-02T00:46:30.348Z,6.11
2023-04-02T00:51:39.082Z,6.13
2023-04-02T00:56:48.100Z,6.18
2023-04-02T01:02:18.780Z,6.13
2023-04-02T01:07:37.672Z,6.16
2023-04-02T01:13:33.874Z,6.17
2023-04-02T01:18:54.997Z,6.27
2023-04-02T01:23:58.023Z,6.34
2023-04-02T01:29:14.188Z,6.43
2023-04-02T01:34:20.369Z,6.51
2023-04-02T01:39:44.724Z,6.58
2023-04-02T01:44:53.441Z,6.62
2023-04-02T01:50:03.804Z,6.60
2023-04-02T01:55:10.495Z,6.49
2023-04-02T02:00:19.285Z,6.32
2023-04-02T02:05:26.555Z,6.20
2023-04-02T02:10:37.333Z,6.13
2023-04-02T02:15:40.018Z,6.10
2023-04-02T02:20:43.140Z,6.09
2023-04-02T02:25:47.990Z,6.07
2023-04-02T02:30:57.407Z,6.20
2023-04-02T02:36:02.730Z,6.23
2023-04-02T02:41:31.269Z,6.31
2023-04-02T02:46:36.270Z,6.42
2023-04-02T02:51:52.822Z,6.53
2023-04-02T02:57:13.617Z,6.58
2023-04-02T03:02:17.063Z,6.68
2023-04-02T03:07:25.826Z,6.79
2023-04-02T03:13:02.493Z,6.84
2023-04-02T03:18:18.329Z,6.86
2023-04-02T03:23:29.276Z,6.93
2023-04-02T03:28:37.672Z,6.98
2023-04-02T03:34:08.269Z,7.09
2023-04-02T03:39:34.135Z,7.11
2023-04-02T03:44:46.131Z,7.15
2023-04-02T03:50:12.516Z,7.21
2023-04-02T03:55:24.545Z,7.31
2023-04-02T04:00:39.830Z,7.37
2023-04-02T04:05:54.748Z,7.47
2023-04-02T04:11:02.283Z,7.51
2023-04-02T04:16:15.820Z,7.52
2023-04-02T04:21:31.322Z,7.54
2023-04-02T04:26:55.201Z,7.55
2023-04-02T04:32:32.632Z,7.62
2023-04-02T04:37:45.339Z,7.66
2023-04-02T04:42:53.410Z,7.69
2023-04-02T04:48:21.015Z,7.86
2023-04-02T04:53:28.005Z,7.99
2023-04-02T04:58:36.529Z,8.03
2023-04-02T05:03:57.477Z,8.25
2023-04-02T05:09:13.789Z,8.48
2023-04-02T05:14:25.088Z,8.68
2023-04-02T05:19:38.462Z,8.80
2023-04-02T05:24:49.247Z,9.04
2023-04-02T05:30:01.207Z,9.22
2023-04-02T05:35:07.090Z,9.28
2023-04-02T05:40:19.721Z,9.33
2023-04-02T05:45:32.324Z,9.39
2023-04-02T05:50:43.568Z,9.26
2023-04-02T05:56:02.937Z,9.36
2023-04-02T06:01:17.875Z,9.55
2023-04-02T06:06:42.051Z,9.75
2023-04-02T06:11:57.195Z,10.08
2023-04-02T06:17:00.184Z,10.27
2023-04-02T06:22:37.424Z,10.38
2023-04-02T06:27:44.270Z,10.59
2023-04-02T06:32:48.945Z,10.71
2023-04-02T06:37:57.659Z,10.85
2023-04-02T06:43:14.947Z,11.07
2023-04-02T06:48:42.636Z,11.32
2023-04-02T06:53:48.389Z,11.49
2023-04-02T06:58:54.720Z,11.64
2023-04-02T07:03:58.993Z,12.07
2023-04-02T07:22:38.239Z,13.92
2023-04-02T07:27:41.564Z,14.58
2023-04-02T07:32:44.925Z,15.17
2023-04-02T07:37:47.858Z,15.25
2023-04-02T07:42:50.999Z,15.13
2023-04-02T07:47:54.770Z,15.53
2023-04-02T07:52:57.662Z,15.51
2023-04-02T07:58:00.707Z,16.49
2023-04-02T08:03:05.052Z,16.75
2023-04-02T08:08:08.999Z,16.24
2023-04-02T08:13:12.185Z,16.57
2023-04-02T08:18:15.046Z,16.77
2023-04-02T08:23:18.274Z,16.95
2023-04-02T08:28:22.601Z,17.11
2023-04-02T08:33:25.165Z,17.29
2023-04-02T08:38:28.004Z,17.44
2023-04-02T08:44:01.093Z,17.21
2023-04-02T08:49:12.077Z,17.03
2023-04-02T08:54:14.599Z,17.78
2023-04-02T08:59:32.177Z,17.91
2023-04-02T09:04:35.317Z,17.80
2023-04-02T09:09:38.745Z,19.00
2023-04-02T09:14:59.529Z,19.78
2023-04-02T09:20:22.901Z,20.19
2023-04-02T09:25:28.403Z,19.97
2023-04-02T09:30:52.627Z,20.08
2023-04-02T09:35:58.165Z,19.43
2023-04-02T09:41:07.132Z,19.73
2023-04-02T09:46:26.446Z,19.32
2023-04-02T09:51:34.725Z,19.63
2023-04-02T09:56:39.942Z,19.28
2023-04-02T10:01:59.536Z,19.08
2023-04-02T10:07:03.738Z,18.82
2023-04-02T10:12:14.377Z,19.02
2023-04-02T10:17:24.838Z,18.80
2023-04-02T10:22:28.781Z,18.76
2023-04-02T10:27:34.913Z,18.50
2023-04-02T10:32:47.758Z,18.98
2023-04-02T10:38:02.902Z,19.07
2023-04-02T10:43:47.152Z,19.46
2023-04-02T10:49:17.742Z,19.06
2023-04-02T10:54:30.988Z,18.97
2023-04-02T10:59:37.621Z,19.47
2023-04-02T11:04:46.621Z,19.64
2023-04-02T11:09:53.935Z,19.59
2023-04-02T11:14:56.902Z,19.52
2023-04-02T11:20:57.712Z,19.46
2023-04-02T11:26:38.535Z,19.29
2023-04-02T11:31:43.168Z,19.09
2023-04-02T11:36:52.904Z,18.93
2023-04-02T11:42:05.852Z,19.13
2023-04-02T11:47:30.105Z,18.99
2023-04-02T11:52:52.116Z,18.87
2023-04-02T11:58:29.967Z,19.15
2023-04-02T12:04:06.344Z,19.12
2023-04-02T12:09:25.433Z,18.72
2023-04-02T12:14:51.279Z,18.63
2023-04-02T12:19:57.596Z,18.17
2023-04-02T12:25:06.909Z,17.78
2023-04-02T12:30:21.151Z,17.67
2023-04-02T12:35:29.161Z,17.58
2023-04-02T12:40:32.384Z,17.25
2023-04-02T12:45:35.272Z,17.12
2023-04-02T12:50:41.999Z,16.63
2023-04-02T12:55:50.254Z,16.45
2023-04-02T13:00:53.023Z,16.31
2023-04-02T13:05:57.652Z,16.13
2023-04-02T13:11:05.464Z,16.05
2023-04-02T13:16:29.284Z,16.09
2023-04-02T13:21:32.459Z,15.96
2023-04-02T13:26:35.092Z,15.80
2023-04-02T13:31:40.360Z,15.57
2023-04-02T13:36:43.003Z,15.53
2023-04-02T13:41:52.364Z,15.29
2023-04-02T13:46:56.687Z,15.23
2023-04-02T13:52:05.233Z,15.10
2023-04-02T13:57:08.664Z,14.92
2023-04-02T14:02:21.009Z,14.77
2023-04-02T14:07:51.942Z,14.67
2023-04-02T14:12:59.097Z,14.49
2023-04-02T14:18:10.801Z,14.28
2023-04-02T14:23:44.487Z,14.13
2023-04-02T14:29:10.663Z,14.07
2023-04-02T14:34:27.470Z,14.00
2023-04-02T14:39:52.296Z,13.97
2023-04-02T14:45:05.244Z,13.80
2023-04-02T14:50:22.040Z,13.63
2023-04-02T14:55:36.399Z,13.52
2023-04-02T15:00:44.311Z,13.43
2023-04-02T15:05:56.376Z,13.28
2023-04-02T15:11:08.269Z,13.11
2023-04-02T15:16:21.447Z,12.96
2023-04-02T15:21:57.569Z,12.78
2023-04-02T15:27:39.496Z,12.55
2023-04-02T15:32:44.364Z,12.39
2023-04-02T15:38:17.117Z,12.23
2023-04-02T15:43:29.999Z,12.07
2023-04-02T15:48:58.672Z,11.92
2023-04-02T15:54:18.523Z,11.76
2023-04-02T16:00:12.159Z,11.60
2023-04-02T16:05:20.159Z,11.44
2023-04-02T16:10:40.874Z,11.31
2023-04-02T16:15:53.825Z,11.18
2023-04-02T16:21:03.951Z,11.07
2023-04-02T16:26:44.014Z,10.97
2023-04-02T16:32:31.863Z,10.88
2023-04-02T16:37:49.817Z,10.81
2023-04-02T16:43:06.675Z,10.78
2023-04-02T16:48:34.633Z,10.73
2023-04-02T16:53:39.927Z,10.62
2023-04-02T16:59:11.399Z,10.55
2023-04-02T17:04:26.562Z,10.51
2023-04-02T17:09:40.636Z,10.45
2023-04-02T17:14:58.540Z,10.34
2023-04-02T17:20:01.986Z,10.24
2023-04-02T17:25:07.944Z,10.09
2023-04-02T17:30:18.075Z,10.05
2023-04-02T17:35:30.165Z,9.98
2023-04-02T17:40:43.549Z,9.90
2023-04-02T17:45:52.103Z,9.81
2023-04-02T17:51:07.944Z,9.72
2023-04-02T17:56:24.675Z,9.62
2023-04-02T18:01:41.012Z,9.51
2023-04-02T18:06:51.351Z,9.47
2023-04-02T18:11:59.794Z,9.36
2023-04-02T18:17:27.540Z,9.22
2023-04-02T18:22:33.109Z,9.08
2023-04-02T18:27:47.936Z,8.93
2023-04-02T18:33:29.978Z,8.78
2023-04-02T18:38:49.386Z,8.71
2023-04-02T18:44:42.940Z,8.63
2023-04-02T18:49:57.664Z,8.53
2023-04-02T18:55:10.594Z,8.52
2023-04-02T19:00:34.089Z,8.50
2023-04-02T19:05:56.104Z,8.49
2023-04-02T19:11:06.580Z,8.49
2023-04-02T19:16:09.374Z,8.53
2023-04-02T19:21:44.358Z,8.57
2023-04-02T19:26:57.360Z,8.61
2023-04-02T19:32:12.045Z,8.65
2023-04-02T19:37:52.725Z,8.73
2023-04-02T19:42:56.186Z,8.79
2023-04-02T19:48:01.673Z,8.78
2023-04-02T19:53:04.577Z,8.79
2023-04-02T19:58:18.677Z,8.84
2023-04-02T20:03:22.590Z,8.85
2023-04-02T20:08:26.284Z,8.83
2023-04-02T20:13:29.658Z,8.92
2023-04-02T20:18:32.653Z,8.93
2023-04-02T20:23:36.193Z,8.88
2023-04-02T20:28:39.217Z,8.75
2023-04-02T20:33:42.328Z,8.66
2023-04-02T20:38:45.931Z,8.52
2023-04-02T20:43:50.128Z,8.39
2023-04-02T20:48:53.180Z,8.25
2023-04-02T20:53:56.512Z,8.25
2023-04-02T20:58:59.340Z,8.16
2023-04-02T21:04:04.680Z,8.06
2023-04-02T21:09:15.166Z,7.96
2023-04-02T21:14:18.362Z,7.93
2023-04-02T21:19:21.178Z,7.87
2023-04-02T21:24:24.066Z,7.80
2023-04-02T21:29:26.956Z,7.73
2023-04-02T21:34:29.591Z,7.65
2023-04-02T21:39:33.956Z,7.58
2023-04-02T21:44:36.590Z,7.48
2023-04-02T21:49:39.053Z,7.33
2023-04-02T21:54:41.586Z,7.12
2023-04-02T21:59:44.217Z,6.98
2023-04-02T22:04:46.877Z,6.83
2023-04-02T22:09:49.810Z,6.73
2023-04-02T22:14:52.674Z,6.58
2023-04-02T22:19:55.852Z,6.50
2023-04-02T22:25:00.529Z,6.39
2023-04-02T22:30:03.497Z,6.29
2023-04-02T22:35:06.752Z,6.20
2023-04-02T22:40:09.968Z,6.20
2023-04-02T22:45:13.293Z,6.17
2023-04-02T22:50:17.469Z,6.12
2023-04-02T22:55:20.395Z,6.00
2023-04-02T23:00:24.371Z,5.98
2023-04-02T23:05:27.223Z,5.95
2023-04-02T23:10:30.825Z,5.89
2023-04-02T23:15:34.167Z,5.86
2023-04-02T23:20:37.527Z,5.83
2023-04-02T23:25:41.550Z,5.88
2023-04-02T23:30:44.983Z,5.88
2023-04-02T23:35:48.057Z,5.89
2023-04-02T23:40:50.655Z,5.85
2023-04-02T23:45:53.391Z,5.87
2023-04-02T23:50:56.457Z,5.83
2023-04-02T23:55:59.297Z,5.80
